• Join FlightAware (Why Join?)
  • Login
  • US Flag GB Flag 
06:29 EDT


 

Airport Tracker/Info


-or-


 

Live Flight TrackerFlight Track Log ✈ N588AC ✈ 11-Apr-2013 ✈ KBWI - KBCB

Flight Track Log - Related Links

Times and Time Zones

All times are in EDT time to prevent confusion due to time zone crossing. See the N588AC flight status page for this flight to view local times or setup timezone preferences in your user account.

Time Position Orientation Groundspeed Altitude Reporting Facility
EDT Latitude Longitude Course Direction KTS MPH feet Rate Location/Type
12:59 39.2167 -76.7333 232° Southwest 200 230 2,400  Level Potomac TRACON
13:00 39.2167 -76.8167 270° West 231 266 4,400 1,560 Climbing Potomac TRACON
13:01 39.2167 -76.9167 270° West 258 297 5,600 1,320 Climbing Potomac TRACON
13:02 39.2333 -77.0000 285° West 268 308 7,100 1,620 Climbing Potomac TRACON
13:03 39.2333 -77.1000 270° West 266 306 8,900 1,320 Climbing Potomac TRACON
13:04 39.2167 -77.1667 252° West 281 323 9,700 1,200 Climbing Potomac TRACON
13:05 38.9082 -77.0807 232° Southwest  Level FlightAware Approximate
13:05 39.1333 -77.2333 212° Southwest 279 321 11,300  Level Potomac TRACON
13:06 39.0833 -77.2833 218° Southwest 268 308 12,900 1,380 Climbing Potomac TRACON
13:07 39.0167 -77.3500 218° Southwest 280 322 14,200 1,020 Climbing Potomac TRACON
13:10 38.8486 -77.4708 209° Southwest 305 351 16,500 960 Climbing Washington Center
13:11 38.7939 -77.5172 213° Southwest 298 343 17,700 1,320 Climbing Washington Center
13:12 38.7156 -77.5819 213° Southwest 304 350 19,200 1,080 Climbing Washington Center
13:13 38.6331 -77.6461 211° Southwest 315 362 19,900 420 Climbing Washington Center
13:14 38.5614 -77.6944 208° Southwest 326 375 20,100  Climbing Washington Center
13:15 38.4808 -77.7692 216° Southwest 338 389 20,000 -180 Descending Washington Center
13:16 38.4356 -77.8581 237° Southwest 329 379 19,800 -60 Descending Washington Center
13:17 38.3897 -77.9625 241° Southwest 324 373 19,900 60 Climbing Washington Center
13:18 38.3483 -78.0458 238° Southwest 319 367 20,000  Climbing Washington Center
13:19 38.2900 -78.1444 233° Southwest 314 361 20,000 -60 Level Washington Center
13:20 38.2467 -78.2225 235° Southwest 314 361 19,900  Descending Washington Center
13:21 38.1944 -78.3208 236° Southwest 314 361 20,000  Climbing Washington Center
13:22 38.1528 -78.4119 240° Southwest 314 361 19,900 -60 Descending Washington Center
13:23 38.1022 -78.5156 238° Southwest 321 369 19,900  Level Washington Center
13:24 38.0769 -78.6069 251° West 314 361 19,900  Level Washington Center
13:25 38.0450 -78.7217 251° West 314 361 20,000 120 Climbing Washington Center
13:26 38.0025 -78.8200 241° Southwest 314 361 20,200 60 Climbing Washington Center
13:27 37.9644 -78.9183 244° Southwest 314 361 20,200 -120 Level Washington Center
13:28 37.9264 -79.0089 242° Southwest 320 368 20,000 -180 Descending Washington Center
13:29 37.8736 -79.1039 235° Southwest 326 375 19,900  Descending Washington Center
13:30 37.8231 -79.1908 234° Southwest 326 375 20,100 60 Climbing Washington Center
13:31 37.7825 -79.2914 243° Southwest 326 375 20,100 -600 Level Washington Center
13:32 37.7356 -79.3942 240° Southwest 314 361 18,900 -1,140 Descending Washington Center
13:33 37.6808 -79.4753 230° Southwest 309 356 17,900 -1,200 Descending Washington Center
13:34 37.6383 -79.5625 238° Southwest 302 348 16,500 -1,680 Descending Washington Center
13:35 37.5978 -79.6519 240° Southwest 297 342 14,600 -1,980 Descending Washington Center
13:36 37.5592 -79.7417 242° Southwest 288 331 12,600 -1,560 Descending Washington Center
13:37 37.5083 -79.8200 231° Southwest 293 337 11,500 -1,200 Descending Washington Center
13:38 37.4458 -79.8819 218° Southwest 299 344 10,200 -1,380 Descending Washington Center
13:39 37.3794 -79.9253 207° Southwest 286 329 8,800 -1,140 Descending Washington Center
13:40 37.3219 -79.9611 206° Southwest 274 315 8,000 -420 Descending Washington Center
13:41 37.2575 -80.0072 210° Southwest 274 315 8,000 -600 Level Washington Center
13:42 37.1933 -80.0531 210° Southwest 274 315 6,800 -720 Descending Washington Center
13:44 37.1397 -80.2008 246° West 233 268 5,900 -480 Descending Washington Center